• Join FlightAware (Why Join?)
  • Login
  • US Flag 
04:36PM EST


 

Airport Tracker/Info


-or-


 

Live Flight TrackerFlight Track Log ✈ N405TM ✈ 24-Apr-2012 ✈ KHLN - KTEB

Flight Track Log - Related Links

Times and Time Zones

All times are in EDT time to prevent confusion due to time zone crossing. See the N405TM flight status page for this flight to view local times or setup timezone preferences in your user account.

Time Position Orientation Groundspeed Altitude Reporting Facility
EDT Latitude Longitude Course Direction KTS MPH feet Rate Location/Type
06:08PM 46.5997 -111.7625 300° West  Level FlightAware Approximate
06:09PM 46.5943 -111.5843 287° West  Level FlightAware Approximate
06:10PM 46.5834 -111.4077 283° West  Level FlightAware Approximate
06:11PM 46.5833 -111.2293 280° West  Level FlightAware Approximate
06:12PM 46.5671 -111.0531 280° West  Level FlightAware Approximate
06:13PM 46.6658 -111.9278 93° East 283 326 11,100  Level Salt Lake Center
06:14PM 46.6619 -111.8114 93° East 290 334 13,400 2,340 Climbing Salt Lake Center
06:15PM 46.6572 -111.6808 93° East 308 354 16,000 2,520 Climbing Salt Lake Center
06:16PM 46.6531 -111.5447 93° East 327 376 18,600 2,580 Climbing Salt Lake Center
06:17PM 46.6469 -111.3778 93° East 340 391 21,400 2,460 Climbing Salt Lake Center
06:18PM 46.6417 -111.2369 93° East 346 398 23,700 2,040 Climbing Salt Lake Center
06:19PM 46.6367 -111.0908 94° East 354 407 25,700 1,800 Climbing Salt Lake Center
06:20PM 46.6292 -110.9361 93° East 376 433 27,400 1,560 Climbing Salt Lake Center
06:21PM 46.6225 -110.7722 93° East 397 457 29,000 1,560 Climbing Salt Lake Center
06:22PM 46.6161 -110.6117 94° East 400 460 30,600 1,620 Climbing Salt Lake Center
06:23PM 46.6078 -110.4281 93° East 396 456 32,400 1,620 Climbing Salt Lake Center
06:24PM 46.6017 -110.2731 94° East 398 458 34,000 1,440 Climbing Salt Lake Center
06:25PM 46.5933 -110.0936 95° East 399 459 35,400 1,020 Climbing Salt Lake Center
06:26PM 46.5847 -109.9411 94° East 398 458 36,200 720 Climbing Salt Lake Center
06:27PM 46.5764 -109.7556 94° East 406 467 37,000 780 Climbing Salt Lake Center
06:28PM 46.5678 -109.5961 94° East 411 473 37,800 660 Climbing Salt Lake Center
06:29PM 46.5594 -109.4356 94° East 413 475 38,400 480 Climbing Salt Lake Center
06:30PM 46.5503 -109.2436 95° East 422 486 38,900 240 Climbing Salt Lake Center
06:31PM 46.5406 -109.0758 95° East 430 495 39,000  Climbing Salt Lake Center
06:32PM 46.5286 -108.8714 95° East 450 518 39,000  Level Salt Lake Center
06:33PM 46.5183 -108.6928 95° East 460 529 39,000  Level Salt Lake Center
06:34PM 46.5072 -108.5103 95° East 469 540 39,000  Level Salt Lake Center
06:35PM 46.4944 -108.3019 96° East 466 536 39,000  Level Salt Lake Center
06:36PM 46.4822 -108.1228 95° East 466 536 39,000  Level Salt Lake Center
06:37PM 46.4683 -107.9136 95° East 466 536 39,000  Level Salt Lake Center
06:38PM 46.4564 -107.7339 96° East 467 537 39,000  Level Salt Lake Center
06:39PM 46.4414 -107.5261 95° East 465 535 39,000  Level Salt Lake Center
06:40PM 46.4300 -107.3478 96° East 464 534 39,000  Level Salt Lake Center
06:41PM 46.4175 -107.1686 96° East 465 535 39,000  Level Salt Lake Center
06:42PM 46.4019 -106.9583 96° East 468 539 39,000  Level Salt Lake Center
06:43PM 46.3881 -106.7772 97° East 470 541 39,000  Level Salt Lake Center
06:44PM 46.3708 -106.5672 96° East 470 541 39,000  Level Salt Lake Center
06:45PM 46.3569 -106.3886 97° East 469 540 39,000  Level Salt Lake Center
06:46PM 46.3422 -106.2108 97° East 466 536 39,000  Level Salt Lake Center
06:47PM 46.3244 -106.0025 97° East 466 536 39,000  Level Salt Lake Center
06:48PM 46.3086 -105.8242 97° East 466 536 39,000  Level Salt Lake Center
06:50PM 46.2903 -105.6150 97° East 468 539 39,000  Level Salt Lake Center
06:51PM 46.2747 -105.4372 98° East 468 539 39,000  Level Salt Lake Center
06:52PM 46.2547 -105.2275 97° East 468 539 39,000  Level Salt Lake Center
06:53PM 46.2394 -105.0514 98° East 466 536 39,100  Climbing Salt Lake Center
06:54PM 46.2225 -104.8733 98° East 467 537 39,100 300 Level Salt Lake Center
06:55PM 46.2031 -104.6667 98° East 466 536 39,800 600 Climbing Salt Lake Center
06:56PM 46.1853 -104.4908 98° East 464 534 40,400 540 Climbing Salt Lake Center
06:57PM 46.1669 -104.3069 98° East 460 529 41,000 240 Climbing Salt Lake Center
06:58PM 46.1492 -104.1283 98° East 456 525 41,000  Level Salt Lake Center
06:59PM 46.1314 -103.9450 98° East 459 528 41,000  Level Salt Lake Center
07:00PM 46.1122 -103.7600 98° East 465 535 41,000  Level Salt Lake Center
07:01PM 46.0892 -103.5394 99° East 467 537 41,000  Level Salt Lake Center
07:02PM 46.0692 -103.3583 99° East 465 535 41,000  Level Salt Lake Center
07:03PM 46.0472 -103.1614 110° East 463 533 41,000  Level Salt Lake Center
07:04PM 46.0056 -103.0008 112° Southeast 472 543 41,000  Level Salt Lake Center
07:05PM 45.9581 -102.8317 111° Southeast 465 535 41,000  Level Salt Lake Center
07:06PM 45.9103 -102.6569 111° Southeast 469 540 41,000  Level Salt Lake Center
07:07PM 45.8525 -102.4467 112° Southeast 471 542 41,000  Level Salt Lake Center
07:08PM 45.8086 -102.2903 111° Southeast 462 532 41,000  Level Minneapolis Center
07:09PM 45.7614 -102.1186 111° Southeast 457 526 41,000  Level Minneapolis Center
07:10PM 45.7158 -101.9475 113° Southeast 457 526 41,000  Level Minneapolis Center
07:11PM 45.6658 -101.7789 111° Southeast 457 526 41,000  Level Minneapolis Center
07:12PM 45.6197 -101.6083 111° Southeast 457 526 41,000  Level Minneapolis Center
07:13PM 45.5733 -101.4381 110° East 457 526 41,000  Level Minneapolis Center
07:14PM 45.5308 -101.2714 114° Southeast 452 520 41,000  Level Minneapolis Center
07:15PM 45.4778 -101.1008 112° Southeast 452 520 41,000  Level Minneapolis Center
07:16PM 45.4289 -100.9281 113° Southeast 457 526 41,000  Level Minneapolis Center
07:17PM 45.3772 -100.7583 108° East 457 526 41,000  Level Minneapolis Center
07:18PM 45.3367 -100.5783 107° East 462 532 41,000  Level Minneapolis Center
07:19PM 45.2978 -100.3989 107° East 468 539 41,000  Level Minneapolis Center
07:20PM 45.2603 -100.2258 103° East 468 539 41,000  Level Minneapolis Center
07:21PM 45.2314 -100.0453 98° East 468 539 41,000  Level Minneapolis Center
07:22PM 45.2100 -99.8389 99° East 468 539 41,000  Level Minneapolis Center
07:23PM 45.1908 -99.6597 99° East 468 539 41,000  Level Minneapolis Center
07:24PM 45.1714 -99.4808 98° East 463 533 41,000  Level Minneapolis Center
07:25PM 45.1536 -99.3019 98° East 463 533 41,000  Level Minneapolis Center
07:26PM 45.1358 -99.1233 99° East 463 533 41,000  Level Minneapolis Center
07:27PM 45.1156 -98.9417 98° East 463 533 41,000  Level Minneapolis Center
07:28PM 45.0972 -98.7603 97° East 463 533 41,000  Level Minneapolis Center
07:29PM 45.0808 -98.5733 100° East 470 541 41,000  Level Minneapolis Center
07:30PM 45.0594 -98.3950 100° East 470 541 41,000  Level Minneapolis Center
07:31PM 45.0381 -98.2194 100° East 470 541 41,000  Level Minneapolis Center
07:32PM 45.0161 -98.0414 99° East 465 535 41,000  Level Minneapolis Center
07:33PM 44.9964 -97.8636 98° East 465 535 41,000  Level Minneapolis Center
07:34PM 44.9797 -97.7006 100° East 465 535 41,000  Level Minneapolis Center
07:35PM 44.9572 -97.5200 98° East 465 535 41,000  Level Minneapolis Center
07:36PM 44.9386 -97.3397 99° East 465 535 41,000  Level Minneapolis Center
07:37PM 44.9194 -97.1622 101° East 465 535 41,000  Level Minneapolis Center
07:38PM 44.8939 -96.9847 99° East 465 535 41,000  Level Minneapolis Center
07:39PM 44.8744 -96.8047 100° East 465 535 41,000  Level Minneapolis Center
07:40PM 44.8489 -96.6069 100° East 465 535 41,000  Level Minneapolis Center
07:42PM 44.8042 -96.2533 99° East 465 535 41,000  Level Minneapolis Center
07:43PM 44.7856 -96.0800 101° East 465 535 41,000  Level Minneapolis Center
07:44PM 44.7642 -95.9211 100° East 465 535 41,000  Level Minneapolis Center
07:45PM 44.7408 -95.7417 101° East 465 535 41,000  Level Minneapolis Center
07:46PM 44.7153 -95.5625 101° East 465 535 41,000  Level Minneapolis Center
07:47PM 44.6914 -95.3864 101° East 465 535 41,000  Level Minneapolis Center
07:48PM 44.6672 -95.2106 101° East 465 535 41,000  Level Minneapolis Center
07:49PM 44.6408 -95.0169 101° East 465 535 41,000  Level Minneapolis Center
07:50PM 44.6161 -94.8414 101° East 460 529 41,000  Level Minneapolis Center
07:51PM 44.5911 -94.6689 103° East 460 529 41,000  Level Minneapolis Center
07:52PM 44.5617 -94.4964 101° East 454 522 41,000  Level Minneapolis Center
07:53PM 44.5381 -94.3242 101° East 454 522 41,000  Level Minneapolis Center
07:54PM 44.5122 -94.1461 102° East 454 522 41,000  Level Minneapolis Center
07:55PM 44.4861 -93.9714 102° East 460 529 41,000  Level Minneapolis Center
07:56PM 44.4597 -93.7936 102° East 460 529 41,000  Level Minneapolis Center
07:57PM 44.4331 -93.6161 103° East 465 535 41,000  Level Minneapolis Center
07:58PM 44.4042 -93.4419 101° East 465 535 41,000  Level Minneapolis Center
07:59PM 44.3789 -93.2675 102° East 465 535 41,000  Level Minneapolis Center
08:00PM 44.3517 -93.0906 103° East 465 535 41,000  Level Minneapolis Center
08:01PM 44.3239 -92.9167 102° East 465 535 41,000  Level Minneapolis Center
08:02PM 44.2958 -92.7403 102° East 465 535 41,000  Level Minneapolis Center
08:03PM 44.2694 -92.5694 103° East 465 535 41,000  Level Minneapolis Center
08:04PM 44.2408 -92.3903 102° East 465 535 41,000  Level Minneapolis Center
08:05PM 44.2164 -92.2344 103° East 465 535 41,000  Level Minneapolis Center
08:06PM 44.1875 -92.0583 104° East 465 535 41,000  Level Minneapolis Center
08:07PM 44.1558 -91.8856 102° East 465 535 41,000  Level Minneapolis Center
08:08PM 44.1283 -91.7100 105° East 465 535 41,000  Level Minneapolis Center
08:09PM 44.0919 -91.5203 103° East 460 529 41,000  Level Minneapolis Center
08:10PM 44.0639 -91.3450 103° East 460 529 41,000  Level Minneapolis Center
08:12PM 44.0231 -91.1047 104° East 463 533 41,000  Level Chicago Center
08:13PM 43.9922 -90.9306 104° East 463 533 41,000  Level Chicago Center
08:14PM 43.9572 -90.7367 104° East 463 533 41,000  Level Chicago Center
08:15PM 43.9258 -90.5658 103° East 463 533 41,000  Level Chicago Center
08:16PM 43.8961 -90.3894 105° East 457 526 41,000  Level Chicago Center
08:17PM 43.8622 -90.2164 105° East 457 526 41,000  Level Chicago Center
08:18PM 43.8300 -90.0461 105° East 457 526 41,000  Level Chicago Center
08:19PM 43.7975 -89.8761 104° East 457 526 41,000  Level Chicago Center
08:20PM 43.7689 -89.7233 105° East 452 520 41,000  Level Chicago Center
08:21PM 43.7361 -89.5539 105° East 452 520 41,000  Level Chicago Center
08:22PM 43.7028 -89.3814 105° East 457 526 41,000  Level Chicago Center
08:23PM 43.6694 -89.2092 105° East 457 526 41,000  Level Chicago Center
08:24PM 43.6358 -89.0372 106° East 451 519 41,000  Level Chicago Center
08:25PM 43.6019 -88.8711 105° East 457 526 41,000  Level Chicago Center
08:26PM 43.5697 -88.7053 105° East 457 526 41,000  Level Chicago Center
08:27PM 43.5333 -88.5194 106° East 457 526 41,000  Level Chicago Center
08:28PM 43.4986 -88.3569 105° East 450 518 41,000  Level Chicago Center
08:29PM 43.4636 -88.1831 106° East 458 527 41,000  Level Chicago Center
08:30PM 43.4306 -88.0206 107° East 451 519 41,000  Level Chicago Center
08:31PM 43.3953 -87.8586 106° East 441 507 41,000  Level Chicago Center
08:32PM 43.3619 -87.7022 107° East 434 499 41,000  Level Chicago Center
08:33PM 43.3261 -87.5378 106° East 440 506 41,000  Level Chicago Center
08:34PM 43.2922 -87.3789 105° East 440 506 41,000  Level Chicago Center
08:35PM 43.2647 -87.2403 106° East 434 499 41,000  Level Chicago Center
08:36PM 43.2306 -87.0761 107° East 434 499 41,000  Level Chicago Center
08:37PM 43.1939 -86.9150 107° East 440 506 41,000  Level Chicago Center
08:38PM 43.1544 -86.7372 107° East 440 506 41,000  Level Chicago Center
08:39PM 43.1172 -86.5711 106° East 440 506 41,000  Level Chicago Center
08:40PM 43.0819 -86.4078 108° East 440 506 41,000  Level Chicago Center
08:41PM 43.0444 -86.2503 107° East 440 506 41,000  Level Chicago Center
08:42PM 43.0064 -86.0761 106° East 451 519 41,000  Level Chicago Center
08:43PM 42.9750 -85.9275 109° East 456 525 41,000  Level Chicago Center
08:44PM 42.9278 -85.7458 104° East 456 525 41,000  Level Chicago Center
08:45PM 42.8975 -85.5858 96° East 456 525 41,000  Level Chicago Center
08:47PM 42.8644 -85.1811 98° East 445 512 41,000  Level Cleveland Center
08:48PM 42.8481 -85.0156 96° East 445 512 41,000  Level Cleveland Center
08:49PM 42.8356 -84.8506 98° East 445 512 41,000  Level Cleveland Center
08:50PM 42.8186 -84.6878 96° East 445 512 41,000  Level Cleveland Center
08:51PM 42.8056 -84.5200 98° East 440 506 41,000  Level Cleveland Center
08:52PM 42.7900 -84.3606 96° East 435 501 41,000  Level Cleveland Center
08:53PM 42.7781 -84.2128 98° East 425 489 41,000  Level Cleveland Center
08:54PM 42.7622 -84.0533 97° East 430 495 41,000  Level Cleveland Center
08:55PM 42.7483 -83.8914 99° East 430 495 41,000 -60 Level Cleveland Center
08:56PM 42.7281 -83.7150 97° East 430 495 40,900  Descending Cleveland Center
08:57PM 42.7139 -83.5503 98° East 430 495 41,000  Climbing Cleveland Center
08:58PM 42.6969 -83.3914 97° East 430 495 41,000  Level Cleveland Center
08:59PM 42.6819 -83.2297 98° East 430 495 41,000  Level Cleveland Center
09:00PM 42.6647 -83.0681 98° East 430 495 41,000  Level Cleveland Center
09:01PM 42.6492 -82.9092 98° East 424 488 41,000  Level Cleveland Center
09:02PM 42.6281 -82.7167 97° East 429 494 41,000  Level Cleveland Center
09:03PM 42.6122 -82.5525 99° East 429 494 41,000  Level Cleveland Center
09:04PM 42.5958 -82.4081 98° East 434 499 41,000  Level Cleveland Center
09:05PM 42.5775 -82.2411 98° East 434 499 41,000  Level Cleveland Center
09:06PM 42.5608 -82.0772 100° East 434 499 41,000  Level Cleveland Center
09:07PM 42.5400 -81.9133 98° East 434 499 41,000  Level Cleveland Center
09:08PM 42.5231 -81.7494 99° East 434 499 41,000  Level Cleveland Center
09:09PM 42.5036 -81.5886 98° East 434 499 41,000  Level Cleveland Center
09:10PM 42.4844 -81.4108 100° East 434 499 41,000  Level Cleveland Center
09:11PM 42.4625 -81.2444 99° East 434 499 41,000  Level Cleveland Center
09:12PM 42.4425 -81.0811 99° East 434 499 41,000  Level Cleveland Center
09:13PM 42.4222 -80.9178 99° East 434 499 41,000  Level Cleveland Center
09:14PM 42.4039 -80.7547 100° East 441 507 41,000  Level Cleveland Center
09:15PM 42.3831 -80.5944 100° East 441 507 41,000  Level Cleveland Center
09:16PM 42.3622 -80.4314 99° East 441 507 41,000  Level Cleveland Center
09:17PM 42.3431 -80.2658 100° East 436 502 41,000  Level Cleveland Center
09:18PM 42.3239 -80.1197 100° East 436 502 41,000  Level Cleveland Center
09:19PM 42.3022 -79.9600 100° East 441 507 41,000  Level Cleveland Center
09:20PM 42.2803 -79.7975 100° East 441 507 41,000 -360 Level Cleveland Center
09:21PM 42.2583 -79.6322 100° East 441 507 40,300 -900 Descending Cleveland Center
09:22PM 42.2358 -79.4614 101° East 452 520 39,300 -1,020 Descending Cleveland Center
09:23PM 42.2111 -79.2881 101° East 458 527 38,300 -1,020 Descending Cleveland Center
09:24PM 42.1861 -79.1147 109° East 469 540 37,300 -1,020 Descending Cleveland Center
09:25PM 42.1444 -78.9478 108° East 464 534 36,300 -1,020 Descending Cleveland Center
09:26PM 42.1044 -78.7836 109° East 464 534 35,300 -660 Descending Cleveland Center
09:27PM 42.0619 -78.6142 109° East 464 534 35,000 -180 Descending Cleveland Center
09:28PM 42.0194 -78.4478 109° East 464 534 35,000  Level Cleveland Center
09:29PM 41.9767 -78.2844 108° East 464 534 35,000  Level Cleveland Center
09:30PM 41.9311 -78.1019 110° East 458 527 35,000 -240 Level Cleveland Center
09:32PM 41.8744 -77.8908 110° East 463 533 34,500 -480 Descending New York Center
09:33PM 41.8300 -77.7303 109° East 463 533 33,900 -660 Descending New York Center
09:34PM 41.7875 -77.5644 109° East 463 533 33,200 -480 Descending New York Center
09:35PM 41.7444 -77.4014 110° East 463 533 33,000 -120 Descending New York Center
09:36PM 41.7047 -77.2531 110° East 463 533 33,000 -4,620 Level New York Center
09:37PM 41.6594 -77.0903 110° East 463 533 24,000 -1,560 Descending New York Center
09:38PM 41.6089 -76.9022 110° East 457 526 29,900 2,100 Climbing New York Center
09:39PM 41.5650 -76.7403 110° East 457 526 28,300 -3,000 Descending New York Center
09:40PM 41.5228 -76.5869 109° East 457 526 24,000 -1,680 Descending New York Center
09:41PM 41.4822 -76.4311 111° Southeast 450 518 25,000  Climbing New York Center
09:42PM 41.4431 -76.2922 110° East 445 512 24,000 -1,020 Descending New York Center
09:43PM 41.4003 -76.1364 112° Southeast 437 503 23,000 -1,320 Descending New York Center
09:44PM 41.3567 -75.9919 110° East 437 503 21,500 -1,500 Descending New York Center
09:45PM 41.3136 -75.8339 111° Southeast 425 489 20,100 -1,320 Descending New York Center
09:46PM 41.2753 -75.7014 113° Southeast 418 481 18,900 -1,800 Descending New York Center
09:47PM 41.2272 -75.5517 114° Southeast 406 467 16,600 -2,520 Descending New York Center
09:48PM 41.1825 -75.4189 114° Southeast 406 467 14,000 -2,400 Descending New York Center
09:49PM 41.1433 -75.3033 114° Southeast 383 441 11,800 -2,040 Descending New York Center
09:50PM 41.1058 -75.1933 114° Southeast 355 409 10,000 -1,980 Descending New York Center
09:51PM 41.0664 -75.0781 113° Southeast 317 365 7,900 -1,920 Descending New York Center
09:52PM 41.0325 -74.9742 114° Southeast 303 349 6,200 -960 Descending New York Center
09:53PM 41.0025 -74.8842 100° East 298 343 6,100 -240 Descending New York Center
09:54PM 40.9875 -74.7706 87° East 298 343 5,800 -600 Descending New York Center
09:55PM 40.9908 -74.6719 87° East 290 334 5,000 -840 Descending New York Center
09:56PM 40.9947 -74.5539 87° East 290 334 4,200 -480 Descending New York Center
09:57PM 40.9978 -74.4606 88° East 290 334 4,100 -480 Descending New York Center
09:58PM 41.0014 -74.3453 92° East 290 334 3,300 -660 Descending New York Center
09:58PM 41.0000 -74.2833 90° East 273 314 3,100 -480 Descending New York TRACON
09:59PM 41.0000 -74.1833 105° East 288 331 2,600 -600 Descending New York TRACON
10:00PM 40.9833 -74.1000 131° Southeast 226 260 2,000 -420 Descending New York TRACON
10:01PM 40.9500 -74.0500 180° South 172 198 1,800 -480 Descending New York TRACON
10:02PM 40.9000 -74.0500 201° Southwest 134 154 1,100 -720 Descending New York TRACON
10:03PM 40.8667 -74.0667 201° Southwest 129 148 400 -720 Descending New York TRACON